Araon — DSQL7 — position and weather

sailwx.info

Track history (hours):
 
Tides and Currents Weather Stations Pressure Air Temp Water Temp Dewpoint Dewpoint Depression Visibility Wind Speed Wind Dir Waves Ship Positions

Oceanographic research ship Araon (Korea)

Ship's website: http://www.kopri.re.kr/index.jsp

Last reported at 2019-Feb-16 00:00 UTC. Time now 2019-Feb-16 03:00 UTC.
Position S 74°36' E 164°12'.

Length 111 m; draft 7.5 m.

Type: Other ship. MMSI: 441619000.

Wind from 030 at 3 knots

Air temperature -2.5 ° C

Date/timePositionNaut miles runAvg speedWind from/ knotsBaromVisibWave heightAir tempDewpointWater temp
2019-Feb-16 00:00S 74°36' E 164°12'3 0.5 030 / 3 -2.5
2019-Feb-15 18:00S 74°36' E 164°24'5 0.8 190 -2.6
2019-Feb-15 12:00S 74°36' E 164°06'5 0.8 150 -3.9
2019-Feb-15 06:00S 74°36' E 164°24'7 1.1 050 / 8 -3.4
2019-Feb-15 00:00S 74°30' E 164°12'6 1.0 130 / 11 -2.8
2019-Feb-14 18:00S 74°36' E 164°18'2 0.3 -3.7
2019-Feb-14 12:00S 74°36' E 164°24'7 1.1 290 / 9 -5.5
2019-Feb-14 06:00S 74°30' E 164°12'0 0.0 250 / 3 -6.1
2019-Feb-14 00:00S 74°30' E 164°12'0 0.0 330 / 2 -5.4
2019-Feb-13 18:00S 74°30' E 164°12'2 0.3 340 / 2 -8.0
2019-Feb-13 12:00S 74°30' E 164°18'66 5.5 040 / 2 -5.4
2019-Feb-13 00:00S 74°24' E 168°24'8414.0 190 / 36 -5.2
2019-Feb-12 18:00S 73°12' E 171°00'8414.1 180 / 44 -3.4
2019-Feb-12 12:00S 71°48' E 171°30'8414.1 180 / 30 -2.4
2019-Feb-12 06:00S 70°24' E 171°06'8414.1 160 / 37 -1.3
2019-Feb-12 00:00S 69°00' E 170°42'7813.0 150 / 39 -1.7
2019-Feb-11 18:00S 67°42' E 170°24'7813.1 160 / 34 -0.6
2019-Feb-11 12:00S 66°24' E 170°06'7813.1 190 / 21 -0.4
2019-Feb-11 06:00S 65°06' E 169°48'8414.1 220 / 27 0.6
2019-Feb-11 00:00S 63°42' E 169°30'7813.1 220 / 26 1.8
2019-Feb-10 18:00S 62°24' E 169°12'8414.1 200 / 17 3.6
2019-Feb-10 12:00S 61°00' E 168°54'8414.0 210 / 10 5.9
2019-Feb-10 06:00S 59°36' E 168°42'8414.0 230 / 17 7.2
2019-Feb-10 00:00S 58°12' E 168°30'7913.1 230 / 16 8.6
2019-Feb-09 18:00S 56°54' E 168°12'9115.2 170 / 14 7.8
2019-Feb-09 12:00S 55°24' E 167°48'7913.1 200 / 9 9.3
2019-Feb-09 06:00S 54°06' E 167°30'8514.1 200 / 14 10.3
2019-Feb-09 00:00S 52°42' E 167°12'7913.1 220 / 12 11.4
2019-Feb-08 18:00S 51°24' E 166°54'8414.0 180 / 5 13.0
2019-Feb-08 12:00S 50°00' E 166°48'7813.1 290 / 5 13.5
2019-Feb-08 06:00S 48°48' E 167°36'7913.2 280 / 17 14.8
2019-Feb-08 00:00S 47°48' E 168°54'4 8.6 190 / 13 13.0
2019-Feb-07 23:31S 47°46' E 168°60'013.0
2019-Feb-07 23:30S 47°46' E 168°60'714.0
2019-Feb-07 23:00S 47°41' E 169°06'713.9
2019-Feb-07 22:30S 47°35' E 169°12'713.6
2019-Feb-07 22:00S 47°30' E 169°18'713.7
2019-Feb-07 21:30S 47°25' E 169°25'713.7
2019-Feb-07 21:00S 47°19' E 169°31'713.6
2019-Feb-07 20:30S 47°13' E 169°37'713.3
2019-Feb-07 20:00S 47°08' E 169°43'713.2
2019-Feb-07 19:30S 47°03' E 169°49'2416.0
2019-Feb-07 18:00S 46°42' E 170°06'8313.8 190 / 14 12.9
2019-Feb-07 12:00S 45°36' E 171°18'7612.7 160 / 9 13.2
2019-Feb-07 06:00S 44°36' E 172°24'6711.2 150 / 16 14.0
2019-Feb-07 00:00S 43°36' E 173°06'18 3.1 120 / 27 13.6
2019-Feb-06 18:00S 43°30' E 172°42'0 0.0 070 / 1 11.4
2019-Feb-06 12:00S 43°30' E 172°42'0 0.0 290 / 2 13.2
2019-Feb-06 06:00S 43°30' E 172°42'0 0.0 230 / 7 14.3
2019-Feb-06 00:00S 43°30' E 172°42'   200 / 11 14.1
Track history (hours):
 
Tides and Currents Weather Stations Pressure Air Temp Water Temp Dewpoint Dewpoint Depression Visibility Wind Speed Wind Dir Waves Ship Positions

Oceanographic research ship Araon (Korea)

Ship's website: http://www.kopri.re.kr/index.jsp

Last reported at 2019-Feb-16 00:00 UTC. Time now 2019-Feb-16 03:00 UTC.
Position S 74°36' E 164°12'.

Length 111 m; draft 7.5 m.

Type: Other ship. MMSI: 441619000.

Wind from 030 at 3 knots

Air temperature -2.5 ° C

Date/timePositionNaut miles runAvg speedWind from/ knotsBaromVisibWave heightAir tempDewpointWater temp
2019-Feb-16 00:00S 74°36' E 164°12'3 0.5 030 / 3 -2.5
2019-Feb-15 18:00S 74°36' E 164°24'5 0.8 190 -2.6
2019-Feb-15 12:00S 74°36' E 164°06'5 0.8 150 -3.9
2019-Feb-15 06:00S 74°36' E 164°24'7 1.1 050 / 8 -3.4
2019-Feb-15 00:00S 74°30' E 164°12'6 1.0 130 / 11 -2.8
2019-Feb-14 18:00S 74°36' E 164°18'2 0.3 -3.7
2019-Feb-14 12:00S 74°36' E 164°24'7 1.1 290 / 9 -5.5
2019-Feb-14 06:00S 74°30' E 164°12'0 0.0 250 / 3 -6.1
2019-Feb-14 00:00S 74°30' E 164°12'0 0.0 330 / 2 -5.4
2019-Feb-13 18:00S 74°30' E 164°12'2 0.3 340 / 2 -8.0
2019-Feb-13 12:00S 74°30' E 164°18'66 5.5 040 / 2 -5.4
2019-Feb-13 00:00S 74°24' E 168°24'8414.0 190 / 36 -5.2
2019-Feb-12 18:00S 73°12' E 171°00'8414.1 180 / 44 -3.4
2019-Feb-12 12:00S 71°48' E 171°30'8414.1 180 / 30 -2.4
2019-Feb-12 06:00S 70°24' E 171°06'8414.1 160 / 37 -1.3
2019-Feb-12 00:00S 69°00' E 170°42'7813.0 150 / 39 -1.7
2019-Feb-11 18:00S 67°42' E 170°24'7813.1 160 / 34 -0.6
2019-Feb-11 12:00S 66°24' E 170°06'7813.1 190 / 21 -0.4
2019-Feb-11 06:00S 65°06' E 169°48'8414.1 220 / 27 0.6
2019-Feb-11 00:00S 63°42' E 169°30'7813.1 220 / 26 1.8
2019-Feb-10 18:00S 62°24' E 169°12'8414.1 200 / 17 3.6
2019-Feb-10 12:00S 61°00' E 168°54'8414.0 210 / 10 5.9
2019-Feb-10 06:00S 59°36' E 168°42'8414.0 230 / 17 7.2
2019-Feb-10 00:00S 58°12' E 168°30'7913.1 230 / 16 8.6
2019-Feb-09 18:00S 56°54' E 168°12'9115.2 170 / 14 7.8
2019-Feb-09 12:00S 55°24' E 167°48'7913.1 200 / 9 9.3
2019-Feb-09 06:00S 54°06' E 167°30'8514.1 200 / 14 10.3
2019-Feb-09 00:00S 52°42' E 167°12'7913.1 220 / 12 11.4
2019-Feb-08 18:00S 51°24' E 166°54'8414.0 180 / 5 13.0
2019-Feb-08 12:00S 50°00' E 166°48'7813.1 290 / 5 13.5
2019-Feb-08 06:00S 48°48' E 167°36'7913.2 280 / 17 14.8
2019-Feb-08 00:00S 47°48' E 168°54'4 8.6 190 / 13 13.0
2019-Feb-07 23:31S 47°46' E 168°60'013.0
2019-Feb-07 23:30S 47°46' E 168°60'714.0
2019-Feb-07 23:00S 47°41' E 169°06'713.9
2019-Feb-07 22:30S 47°35' E 169°12'713.6
2019-Feb-07 22:00S 47°30' E 169°18'713.7
2019-Feb-07 21:30S 47°25' E 169°25'713.7
2019-Feb-07 21:00S 47°19' E 169°31'713.6
2019-Feb-07 20:30S 47°13' E 169°37'713.3
2019-Feb-07 20:00S 47°08' E 169°43'713.2
2019-Feb-07 19:30S 47°03' E 169°49'2416.0
2019-Feb-07 18:00S 46°42' E 170°06'8313.8 190 / 14 12.9
2019-Feb-07 12:00S 45°36' E 171°18'7612.7 160 / 9 13.2
2019-Feb-07 06:00S 44°36' E 172°24'6711.2 150 / 16 14.0
2019-Feb-07 00:00S 43°36' E 173°06'18 3.1 120 / 27 13.6
2019-Feb-06 18:00S 43°30' E 172°42'0 0.0 070 / 1 11.4
2019-Feb-06 12:00S 43°30' E 172°42'0 0.0 290 / 2 13.2
2019-Feb-06 06:00S 43°30' E 172°42'0 0.0 230 / 7 14.3
2019-Feb-06 00:00S 43°30' E 172°42'   200 / 11 14.1

Dump ship's entire track history